createdAt,value
2023-01-10T00:02:09.583Z,92.48
2023-01-10T00:04:37.955Z,91.37
2023-01-10T00:07:05.945Z,91.61
2023-01-10T00:09:34.037Z,94.54
2023-01-10T00:12:21.683Z,96.05
2023-01-10T00:14:50.045Z,92.08
2023-01-10T00:17:18.979Z,92.54
2023-01-10T00:19:46.933Z,93.39
2023-01-10T00:22:14.929Z,93.63
2023-01-10T00:24:44.291Z,92.79
2023-01-10T00:27:13.088Z,91.16
2023-01-10T00:29:41.497Z,91.23
2023-01-10T00:32:09.833Z,92.70
2023-01-10T00:34:37.882Z,91.50
2023-01-10T00:37:05.844Z,89.70
2023-01-10T00:39:34.075Z,88.08
2023-01-10T00:42:20.487Z,89.67
2023-01-10T00:44:49.279Z,89.42
2023-01-10T00:47:17.396Z,92.03
2023-01-10T00:49:45.242Z,91.86
2023-01-10T00:52:13.752Z,93.53
2023-01-10T00:54:41.673Z,93.54
2023-01-10T00:57:09.672Z,93.58
2023-01-10T00:59:38.014Z,94.84
2023-01-10T01:02:05.927Z,95.57
2023-01-10T01:04:34.699Z,92.60
2023-01-10T01:07:03.248Z,92.80
2023-01-10T01:09:31.292Z,93.86
2023-01-10T01:11:59.166Z,92.51
2023-01-10T01:14:27.485Z,94.44
2023-01-10T01:16:55.691Z,92.54
2023-01-10T01:19:23.648Z,95.98
2023-01-10T01:21:51.896Z,96.53
2023-01-10T01:24:21.562Z,95.22
2023-01-10T01:26:49.442Z,93.39
2023-01-10T01:29:18.187Z,94.48
2023-01-10T01:31:46.459Z,94.05
2023-01-10T01:34:14.886Z,97.35
2023-01-10T01:36:43.297Z,96.17
2023-01-10T01:39:11.176Z,96.58
2023-01-10T01:41:57.604Z,98.62
2023-01-10T01:44:32.642Z,95.89
2023-01-10T01:47:03.581Z,99.78
2023-01-10T01:49:33.402Z,96.91
2023-01-10T01:52:05.710Z,98.14
2023-01-10T01:54:34.494Z,98.35
2023-01-10T01:57:15.481Z,95.00
2023-01-10T01:59:45.631Z,97.04
2023-01-10T02:02:20.653Z,98.33
2023-01-10T02:04:57.124Z,99.27
2023-01-10T02:07:26.815Z,100.00
2023-01-10T02:10:09.973Z,100.00
2023-01-10T02:12:38.790Z,98.67
2023-01-10T02:15:07.295Z,99.13
2023-01-10T02:17:35.241Z,100.00
2023-01-10T02:20:08.750Z,97.59
2023-01-10T02:22:58.039Z,97.81
2023-01-10T02:25:45.255Z,100.00
2023-01-10T02:28:47.122Z,100.00
2023-01-10T02:31:21.373Z,98.59
2023-01-10T02:34:14.550Z,100.00
2023-01-10T02:37:06.931Z,99.24
2023-01-10T02:39:56.813Z,99.40
2023-01-10T02:42:40.216Z,100.00
2023-01-10T02:45:23.074Z,100.00
2023-01-10T02:47:51.354Z,98.01
2023-01-10T02:50:45.963Z,97.52
2023-01-10T02:53:14.200Z,99.66
2023-01-10T02:55:54.887Z,99.33
2023-01-10T02:58:46.091Z,99.45
2023-01-10T03:01:44.869Z,100.00
2023-01-10T03:04:19.054Z,99.01
2023-01-10T03:07:02.205Z,100.00
2023-01-10T03:09:36.342Z,100.00
2023-01-10T03:12:14.800Z,100.00
2023-01-10T03:14:43.987Z,100.00
2023-01-10T03:17:12.631Z,100.00
2023-01-10T03:19:57.094Z,100.00
2023-01-10T03:22:26.862Z,99.84
2023-01-10T03:24:56.867Z,100.00
2023-01-10T03:27:25.124Z,100.00
2023-01-10T03:29:57.085Z,100.00
2023-01-10T03:32:27.483Z,100.00
2023-01-10T03:34:55.689Z,100.00
2023-01-10T03:37:29.483Z,100.00
2023-01-10T03:40:05.924Z,100.00
2023-01-10T03:43:10.263Z,100.00
2023-01-10T03:46:05.563Z,100.00
2023-01-10T03:48:37.452Z,99.56
2023-01-10T03:51:06.891Z,100.00
2023-01-10T03:53:36.731Z,100.00
2023-01-10T03:56:05.151Z,100.00
2023-01-10T03:58:34.119Z,100.00
2023-01-10T04:01:02.660Z,100.00
2023-01-10T04:03:31.088Z,100.00
2023-01-10T04:05:59.053Z,100.00
2023-01-10T04:08:26.902Z,100.00
2023-01-10T04:10:55.405Z,100.00
2023-01-10T04:13:23.381Z,99.45
2023-01-10T04:15:51.813Z,100.00
2023-01-10T04:18:20.356Z,100.00
2023-01-10T04:20:48.649Z,100.00
2023-01-10T04:23:17.145Z,98.84
2023-01-10T04:25:48.025Z,100.00
2023-01-10T04:28:16.027Z,100.00
2023-01-10T04:30:43.988Z,99.73
2023-01-10T04:33:12.740Z,100.00
2023-01-10T04:35:40.592Z,100.00
2023-01-10T04:38:08.548Z,100.00
2023-01-10T04:40:36.919Z,100.00
2023-01-10T04:43:04.851Z,100.00
2023-01-10T04:45:32.936Z,100.00
2023-01-10T04:48:01.291Z,100.00
2023-01-10T04:50:29.424Z,100.00
2023-01-10T04:52:57.412Z,100.00
2023-01-10T04:55:25.683Z,99.36
2023-01-10T04:57:53.720Z,100.00
2023-01-10T05:00:21.584Z,100.00
2023-01-10T05:02:49.977Z,100.00
2023-01-10T05:05:18.035Z,100.00
2023-01-10T05:07:47.275Z,100.00
2023-01-10T05:10:15.901Z,99.36
2023-01-10T05:12:45.847Z,100.00
2023-01-10T05:15:14.044Z,100.00
2023-01-10T05:17:42.429Z,98.78
2023-01-10T05:20:11.176Z,98.95
2023-01-10T05:22:39.355Z,99.06
2023-01-10T05:25:07.901Z,99.00
2023-01-10T05:27:35.816Z,99.84
2023-01-10T05:30:04.010Z,99.10
2023-01-10T05:32:32.405Z,99.73
2023-01-10T05:35:00.505Z,99.42
2023-01-10T05:37:28.492Z,100.00
2023-01-10T05:39:56.823Z,100.00
2023-01-10T05:42:26.558Z,100.00
2023-01-10T05:44:54.434Z,100.00
2023-01-10T05:47:22.843Z,100.00
2023-01-10T05:49:50.993Z,100.00
2023-01-10T05:52:18.989Z,100.00
2023-01-10T05:54:47.364Z,100.00
2023-01-10T05:57:15.357Z,100.00
2023-01-10T05:59:43.371Z,100.00
2023-01-10T06:02:11.774Z,100.00
2023-01-10T06:04:40.123Z,100.00
2023-01-10T06:07:08.119Z,100.00
2023-01-10T06:09:36.097Z,100.00
2023-01-10T06:12:04.639Z,100.00
2023-01-10T06:14:32.665Z,100.00
2023-01-10T06:17:00.668Z,100.00
2023-01-10T06:19:29.033Z,100.00
2023-01-10T06:21:57.117Z,100.00
2023-01-10T06:24:25.061Z,100.00
2023-01-10T06:26:53.383Z,100.00
2023-01-10T06:29:21.454Z,100.00
2023-01-10T06:31:49.534Z,100.00
2023-01-10T06:34:18.047Z,100.00
2023-01-10T06:36:46.328Z,100.00
2023-01-10T06:39:14.743Z,100.00
2023-01-10T06:41:44.158Z,100.00
2023-01-10T06:44:12.361Z,100.00
2023-01-10T06:46:41.108Z,100.00
2023-01-10T06:49:10.002Z,100.00
2023-01-10T06:51:38.004Z,100.00
2023-01-10T06:54:07.045Z,100.00
2023-01-10T06:56:36.030Z,100.00
2023-01-10T06:59:03.925Z,100.00
2023-01-10T07:01:32.098Z,100.00
2023-01-10T07:04:00.514Z,100.00
2023-01-10T07:06:28.463Z,100.00
2023-01-10T07:08:56.790Z,100.00
2023-01-10T07:11:25.079Z,99.84
2023-01-10T07:13:54.270Z,100.00
2023-01-10T07:16:22.184Z,100.00
2023-01-10T07:18:50.541Z,100.00
2023-01-10T07:21:20.114Z,100.00
2023-01-10T07:23:50.252Z,100.00
2023-01-10T07:26:19.753Z,100.00
2023-01-10T07:28:51.250Z,100.00
2023-01-10T07:31:20.718Z,100.00
2023-01-10T07:33:48.801Z,100.00
2023-01-10T07:36:17.269Z,100.00
2023-01-10T07:38:45.736Z,100.00
2023-01-10T07:41:13.752Z,100.00
2023-01-10T07:43:41.792Z,100.00
2023-01-10T07:46:12.492Z,100.00
2023-01-10T07:48:42.260Z,100.00
2023-01-10T07:51:10.742Z,100.00
2023-01-10T07:53:39.173Z,100.00
2023-01-10T07:56:07.601Z,100.00
2023-01-10T07:58:36.157Z,100.00
2023-01-10T08:01:05.453Z,100.00
2023-01-10T08:03:34.358Z,99.74
2023-01-10T08:06:06.687Z,100.00
2023-01-10T08:08:36.756Z,99.19
2023-01-10T08:11:05.366Z,100.00
2023-01-10T08:13:34.791Z,99.46
2023-01-10T08:16:07.789Z,98.21
2023-01-10T08:18:36.161Z,99.13
2023-01-10T08:21:04.714Z,100.00
2023-01-10T08:23:32.606Z,100.00
2023-01-10T08:26:00.852Z,98.67
2023-01-10T08:28:29.550Z,98.80
2023-01-10T08:30:58.401Z,100.00
2023-01-10T08:33:27.763Z,100.00
2023-01-10T08:35:56.125Z,99.89
2023-01-10T08:38:24.094Z,99.99
2023-01-10T08:40:53.811Z,99.32
2023-01-10T08:43:22.216Z,100.00
2023-01-10T08:45:50.393Z,100.00
2023-01-10T08:48:19.022Z,100.00
2023-01-10T08:50:47.353Z,99.96
2023-01-10T08:53:15.458Z,100.00
2023-01-10T08:55:43.553Z,100.00
2023-01-10T08:58:12.171Z,99.49
2023-01-10T09:00:41.425Z,100.00
2023-01-10T09:03:11.016Z,100.00
2023-01-10T09:05:39.374Z,100.00
2023-01-10T09:08:08.891Z,100.00
2023-01-10T09:10:36.931Z,100.00
2023-01-10T09:13:06.142Z,100.00
2023-01-10T09:15:36.023Z,98.92
2023-01-10T09:18:06.252Z,98.82
2023-01-10T09:20:37.115Z,100.00
2023-01-10T09:23:13.227Z,100.00
2023-01-10T09:25:42.035Z,99.52
2023-01-10T09:28:10.265Z,99.71
2023-01-10T09:30:38.471Z,100.00
2023-01-10T09:33:07.651Z,98.59
2023-01-10T09:35:38.293Z,99.62
2023-01-10T09:38:10.176Z,97.42
2023-01-10T09:41:12.368Z,97.45
2023-01-10T09:44:14.883Z,97.54
2023-01-10T09:47:08.395Z,100.00
2023-01-10T09:49:57.810Z,99.37
2023-01-10T09:52:33.825Z,98.66
2023-01-10T09:55:27.221Z,97.46
2023-01-10T09:58:01.149Z,96.93
2023-01-10T10:00:51.631Z,97.02
2023-01-10T10:03:43.301Z,100.00
2023-01-10T10:06:13.206Z,99.39
2023-01-10T10:08:42.941Z,99.92
2023-01-10T10:11:31.194Z,100.00
2023-01-10T10:14:38.806Z,99.09
2023-01-10T10:17:22.293Z,98.71
2023-01-10T10:20:12.817Z,100.00
2023-01-10T10:22:55.883Z,100.00
2023-01-10T10:26:03.049Z,100.00
2023-01-10T10:28:59.762Z,100.00
2023-01-10T10:31:47.563Z,100.00
2023-01-10T10:34:30.897Z,100.00
2023-01-10T10:37:17.798Z,100.00
2023-01-10T10:39:58.060Z,100.00
2023-01-10T10:42:34.135Z,100.00
2023-01-10T10:45:11.502Z,100.00
2023-01-10T10:47:42.980Z,100.00
2023-01-10T10:50:23.343Z,100.00
2023-01-10T10:52:51.897Z,100.00
2023-01-10T10:55:31.951Z,100.00
2023-01-10T10:58:02.142Z,100.00
2023-01-10T11:00:30.731Z,100.00
2023-01-10T11:03:12.934Z,100.00
2023-01-10T11:05:44.065Z,100.00
2023-01-10T11:08:13.897Z,100.00
2023-01-10T11:10:44.762Z,100.00
2023-01-10T11:13:20.191Z,100.00
2023-01-10T11:15:49.774Z,99.50
2023-01-10T11:18:28.013Z,100.00
2023-01-10T11:21:07.047Z,100.00
2023-01-10T11:23:56.043Z,100.00
2023-01-10T11:26:34.580Z,100.00
2023-01-10T11:29:16.334Z,100.00
2023-01-10T11:31:46.900Z,99.08
2023-01-10T11:34:21.639Z,100.00
2023-01-10T11:36:58.885Z,100.00
2023-01-10T11:39:27.935Z,100.00
2023-01-10T11:41:58.447Z,100.00
2023-01-10T11:44:29.055Z,99.91
2023-01-10T11:47:00.124Z,100.00
2023-01-10T11:49:42.081Z,100.00
2023-01-10T11:52:44.113Z,100.00
2023-01-10T11:55:20.530Z,98.57
2023-01-10T11:57:59.775Z,99.00
2023-01-10T12:00:33.037Z,100.00
2023-01-10T12:03:01.841Z,100.00
2023-01-10T12:05:32.020Z,99.22
2023-01-10T12:08:06.770Z,100.00
2023-01-10T12:10:35.711Z,100.00
2023-01-10T12:13:17.383Z,100.00
2023-01-10T12:15:48.944Z,100.00
2023-01-10T12:18:21.960Z,100.00
2023-01-10T12:20:54.009Z,100.00
2023-01-10T12:23:23.615Z,100.00
2023-01-10T12:26:07.155Z,100.00
2023-01-10T12:28:43.115Z,99.79
2023-01-10T12:31:14.961Z,100.00
2023-01-10T12:33:48.161Z,100.00
2023-01-10T12:36:37.193Z,100.00
2023-01-10T12:39:27.538Z,99.15
2023-01-10T12:42:24.009Z,100.00
2023-01-10T12:45:15.505Z,98.35
2023-01-10T12:47:47.125Z,99.05
2023-01-10T12:50:33.781Z,100.00
2023-01-10T12:53:04.294Z,99.11
2023-01-10T12:55:38.193Z,97.57
2023-01-10T12:58:09.996Z,98.77
2023-01-10T13:00:48.115Z,99.07
2023-01-10T13:03:23.030Z,96.78
2023-01-10T13:05:55.049Z,98.14
2023-01-10T13:08:25.841Z,98.16
2023-01-10T13:10:56.132Z,98.71
2023-01-10T13:13:41.468Z,97.20
2023-01-10T13:16:23.870Z,99.83
2023-01-10T13:19:12.095Z,99.34
2023-01-10T13:21:41.772Z,98.92
2023-01-10T13:24:17.552Z,100.00
2023-01-10T13:26:57.875Z,100.00
2023-01-10T13:29:38.984Z,99.64
2023-01-10T13:32:25.711Z,98.99
2023-01-10T13:34:54.469Z,100.00
2023-01-10T13:37:35.791Z,99.40
2023-01-10T13:40:05.923Z,100.00
2023-01-10T13:42:54.354Z,98.13
2023-01-10T13:45:29.698Z,98.26
2023-01-10T13:48:03.705Z,98.89
2023-01-10T13:50:40.058Z,100.00
2023-01-10T13:53:09.095Z,99.04
2023-01-10T13:55:42.676Z,97.72
2023-01-10T13:58:16.244Z,100.00
2023-01-10T14:01:16.195Z,97.63
2023-01-10T14:03:58.621Z,98.21
2023-01-10T14:06:29.500Z,96.65
2023-01-10T14:08:59.535Z,97.33
2023-01-10T14:11:45.814Z,98.46
2023-01-10T14:14:34.444Z,98.41
2023-01-10T14:17:25.068Z,99.16
2023-01-10T14:20:01.257Z,99.20
2023-01-10T14:22:31.559Z,97.34
2023-01-10T14:25:01.905Z,98.85
2023-01-10T14:27:44.343Z,98.84
2023-01-10T14:30:22.950Z,98.97
2023-01-10T14:32:53.871Z,98.79
2023-01-10T14:35:27.874Z,98.05
2023-01-10T14:38:00.108Z,96.85
2023-01-10T14:40:49.665Z,96.86
2023-01-10T14:43:22.051Z,97.69
2023-01-10T14:45:57.917Z,97.39
2023-01-10T14:48:31.190Z,96.09
2023-01-10T14:51:21.835Z,97.84
2023-01-10T14:54:01.690Z,97.07
2023-01-10T14:56:37.800Z,95.82
2023-01-10T14:59:36.162Z,94.78
2023-01-10T15:02:28.678Z,97.36
2023-01-10T15:05:01.222Z,96.03
2023-01-10T15:07:29.618Z,95.32
2023-01-10T15:10:03.083Z,97.64
2023-01-10T15:12:33.894Z,98.18
2023-01-10T15:15:13.809Z,96.74
2023-01-10T15:17:42.631Z,98.22
2023-01-10T15:20:15.703Z,94.80
2023-01-10T15:22:48.225Z,97.03
2023-01-10T15:25:19.014Z,96.06
2023-01-10T15:27:50.320Z,97.32
2023-01-10T15:30:31.164Z,94.98
2023-01-10T15:33:04.709Z,94.99
2023-01-10T15:35:36.668Z,95.94
2023-01-10T15:38:13.731Z,96.24
2023-01-10T15:40:44.249Z,97.01
2023-01-10T15:43:23.794Z,95.12
2023-01-10T15:45:53.426Z,95.51
2023-01-10T15:48:29.141Z,95.03
2023-01-10T15:51:25.258Z,94.33
2023-01-10T15:54:05.708Z,94.91
2023-01-10T15:56:40.771Z,94.66
2023-01-10T15:59:29.012Z,95.58
2023-01-10T16:02:22.654Z,95.04
2023-01-10T16:04:54.993Z,95.32
2023-01-10T16:07:31.600Z,94.47
2023-01-10T16:10:13.348Z,94.72
2023-01-10T16:13:01.342Z,95.99
2023-01-10T16:15:44.120Z,96.33
2023-01-10T16:18:12.152Z,97.14
2023-01-10T16:20:45.916Z,94.95
2023-01-10T16:23:17.765Z,94.34
2023-01-10T16:25:48.309Z,94.34
2023-01-10T16:28:18.118Z,93.52
2023-01-10T16:30:48.158Z,93.05
2023-01-10T16:33:20.252Z,92.22
2023-01-10T16:35:49.672Z,94.63
2023-01-10T16:38:18.946Z,94.40
2023-01-10T16:41:25.728Z,93.05
2023-01-10T16:43:54.220Z,92.73
2023-01-10T16:46:24.290Z,93.46
2023-01-10T16:48:53.562Z,92.31
2023-01-10T16:51:32.671Z,91.93
2023-01-10T16:54:01.311Z,91.56
2023-01-10T16:56:30.721Z,93.08
2023-01-10T16:58:59.128Z,91.02
2023-01-10T17:01:31.340Z,89.84
2023-01-10T17:03:59.846Z,89.87
2023-01-10T17:06:28.977Z,89.58
2023-01-10T17:08:56.999Z,88.76
2023-01-10T17:11:34.602Z,89.80
2023-01-10T17:14:04.483Z,89.00
2023-01-10T17:16:33.572Z,88.95
2023-01-10T17:19:01.632Z,90.11
2023-01-10T17:21:29.626Z,88.73
2023-01-10T17:23:58.161Z,88.90
2023-01-10T17:26:26.253Z,88.05
2023-01-10T17:28:54.290Z,87.61
2023-01-10T17:31:22.947Z,87.53
2023-01-10T17:33:51.133Z,87.52
2023-01-10T17:36:19.665Z,86.34
2023-01-10T17:38:48.772Z,85.93
2023-01-10T17:41:16.816Z,87.95
2023-01-10T17:43:44.923Z,86.87
2023-01-10T17:46:14.143Z,86.39
2023-01-10T17:48:42.404Z,88.37
2023-01-10T17:51:13.271Z,87.19
2023-01-10T17:53:41.825Z,86.05
2023-01-10T17:56:10.055Z,87.37
2023-01-10T17:58:38.125Z,86.58
2023-01-10T18:01:08.399Z,85.46
2023-01-10T18:03:36.740Z,85.47
2023-01-10T18:06:05.705Z,86.62
2023-01-10T18:08:35.759Z,85.83
2023-01-10T18:11:04.563Z,86.54
2023-01-10T18:13:32.674Z,85.87
2023-01-10T18:16:01.399Z,85.90
2023-01-10T18:18:30.552Z,85.99
2023-01-10T18:21:02.407Z,86.89
2023-01-10T18:23:32.124Z,86.28
2023-01-10T18:26:04.304Z,84.85
2023-01-10T18:28:41.830Z,84.71
2023-01-10T18:31:10.523Z,85.03
2023-01-10T18:33:39.043Z,84.97
2023-01-10T18:36:08.863Z,85.93
2023-01-10T18:38:37.732Z,84.64
2023-01-10T18:41:06.205Z,85.19
2023-01-10T18:43:34.279Z,85.64
2023-01-10T18:46:03.220Z,86.37
2023-01-10T18:48:31.827Z,85.34
2023-01-10T18:51:01.072Z,84.62
2023-01-10T18:53:29.329Z,83.68
2023-01-10T18:56:04.698Z,85.59
2023-01-10T18:58:35.638Z,85.91
2023-01-10T19:01:14.713Z,85.04
2023-01-10T19:03:43.147Z,83.65
2023-01-10T19:06:14.684Z,85.20
2023-01-10T19:08:43.997Z,87.63
2023-01-10T19:11:15.466Z,86.96
2023-01-10T19:13:44.918Z,86.30
2023-01-10T19:16:30.983Z,83.39
2023-01-10T19:19:02.733Z,84.33
2023-01-10T19:21:32.650Z,85.23
2023-01-10T19:24:06.617Z,86.04
2023-01-10T19:26:49.514Z,86.13
2023-01-10T19:29:18.050Z,84.49
2023-01-10T19:31:48.542Z,84.95
2023-01-10T19:34:17.268Z,85.12
2023-01-10T19:36:45.900Z,84.66
2023-01-10T19:39:15.539Z,85.16
2023-01-10T19:41:43.581Z,84.85
2023-01-10T19:44:13.728Z,85.26
2023-01-10T19:46:51.015Z,84.46
2023-01-10T19:49:21.262Z,84.87
2023-01-10T19:51:55.732Z,84.69
2023-01-10T19:54:27.094Z,84.30
2023-01-10T19:56:56.755Z,85.70
2023-01-10T19:59:25.242Z,84.24
2023-01-10T20:01:53.248Z,84.99
2023-01-10T20:04:24.444Z,84.03
2023-01-10T20:06:52.643Z,83.46
2023-01-10T20:09:20.943Z,84.48
2023-01-10T20:11:49.379Z,84.19
2023-01-10T20:14:20.133Z,84.99
2023-01-10T20:16:49.140Z,84.25
2023-01-10T20:19:17.756Z,84.80
2023-01-10T20:21:45.966Z,86.70
2023-01-10T20:24:17.379Z,85.05
2023-01-10T20:26:47.185Z,84.80
2023-01-10T20:29:15.909Z,83.21
2023-01-10T20:31:46.797Z,83.18
2023-01-10T20:34:15.969Z,84.26
2023-01-10T20:36:44.533Z,84.19
2023-01-10T20:39:12.639Z,84.78
2023-01-10T20:41:41.002Z,85.50
2023-01-10T20:44:09.102Z,85.24
2023-01-10T20:46:37.551Z,84.76
2023-01-10T20:49:06.847Z,84.18
2023-01-10T20:51:35.703Z,85.11
2023-01-10T20:54:08.706Z,85.32
2023-01-10T20:56:38.592Z,85.57
2023-01-10T20:59:07.072Z,84.69
2023-01-10T21:01:36.000Z,86.05
2023-01-10T21:04:06.158Z,85.33
2023-01-10T21:06:35.690Z,85.00
2023-01-10T21:09:05.267Z,85.40
2023-01-10T21:11:44.305Z,86.45
2023-01-10T21:14:22.192Z,85.88
2023-01-10T21:16:51.061Z,86.06
2023-01-10T21:19:19.512Z,86.61
2023-01-10T21:21:47.609Z,87.36
2023-01-10T21:24:16.300Z,85.35
2023-01-10T21:26:44.557Z,87.16
2023-01-10T21:29:13.283Z,86.78
2023-01-10T21:31:41.995Z,87.35
2023-01-10T21:34:10.134Z,87.07
2023-01-10T21:36:38.512Z,86.94
2023-01-10T21:39:06.930Z,87.58
2023-01-10T21:41:53.807Z,87.30
2023-01-10T21:44:22.342Z,87.40
2023-01-10T21:46:51.648Z,87.59
2023-01-10T21:49:21.440Z,87.89
2023-01-10T21:51:49.952Z,87.40
2023-01-10T21:54:18.111Z,88.45
2023-01-10T21:56:46.351Z,87.12
2023-01-10T21:59:15.041Z,87.07
2023-01-10T22:01:43.153Z,85.78
2023-01-10T22:04:13.725Z,86.31
2023-01-10T22:06:43.264Z,85.77
2023-01-10T22:09:11.794Z,86.14
2023-01-10T22:11:39.987Z,86.12
2023-01-10T22:14:08.126Z,87.66
2023-01-10T22:16:36.674Z,86.26
2023-01-10T22:19:04.933Z,86.90
2023-01-10T22:21:33.063Z,86.14
2023-01-10T22:24:01.571Z,86.10
2023-01-10T22:26:29.848Z,87.02
2023-01-10T22:28:58.051Z,86.71
2023-01-10T22:31:26.673Z,85.33
2023-01-10T22:33:54.731Z,86.00
2023-01-10T22:36:23.111Z,85.16
2023-01-10T22:38:51.616Z,84.92
2023-01-10T22:41:27.653Z,85.06
2023-01-10T22:43:56.808Z,84.73
2023-01-10T22:46:25.150Z,83.79
2023-01-10T22:48:53.418Z,86.32
2023-01-10T22:51:23.233Z,85.08
2023-01-10T22:53:53.546Z,85.42
2023-01-10T22:56:24.107Z,85.69
2023-01-10T22:58:52.951Z,85.54
2023-01-10T23:01:22.865Z,87.75
2023-01-10T23:03:51.059Z,86.33
2023-01-10T23:06:19.338Z,85.93
2023-01-10T23:08:48.230Z,85.29
2023-01-10T23:11:18.681Z,86.02
2023-01-10T23:13:48.159Z,86.39
2023-01-10T23:16:20.497Z,87.62
2023-01-10T23:18:49.279Z,88.86
2023-01-10T23:21:17.664Z,89.75
2023-01-10T23:23:45.796Z,88.25
2023-01-10T23:26:14.361Z,88.96
2023-01-10T23:28:47.142Z,88.33
2023-01-10T23:31:17.262Z,88.40
2023-01-10T23:33:45.769Z,89.38
2023-01-10T23:36:13.929Z,88.79
2023-01-10T23:38:41.922Z,89.81
2023-01-10T23:41:10.410Z,88.79
2023-01-10T23:43:38.388Z,88.57
2023-01-10T23:46:07.130Z,89.55
2023-01-10T23:48:35.749Z,89.56
2023-01-10T23:51:03.963Z,88.92
2023-01-10T23:53:32.011Z,88.33
2023-01-10T23:56:06.158Z,88.28
2023-01-10T23:58:34.172Z,88.71
